Betagas — V2KA8 — position and weather

sailwx.info

Track history (hours):
 
Tides and Currents Weather Stations Pressure Air Temp Water Temp Dewpoint Dewpoint Depression Visibility Wind Speed Wind Dir Waves Ship Positions

Betagas

Last reported at 2016-Jun-28 14:33 UTC. Time now 2016-Jun-28 15:12 UTC.
Position N 54°02' E 008°10'.

Length 114.6 m; beam 15.7 m; draft 7.4 m.

Type: Tanker. MMSI: 304050636.

Date/timePositionNaut miles runAvg speedWind from/ knotsBaromVisibWave heightAir tempDewpointWater temp
2016-Jun-28 14:33N 54°02' E 008°10'0 0.0
2016-Jun-28 13:33N 54°02' E 008°10'0 0.0
2016-Jun-28 12:33N 54°02' E 008°10'0 0.1
2016-Jun-28 11:33N 54°02' E 008°09'0 0.0
2016-Jun-28 10:27N 54°02' E 008°09'0 0.1
2016-Jun-28 09:30N 54°02' E 008°09'0 0.0
2016-Jun-28 08:33N 54°02' E 008°09'0 0.1
2016-Jun-28 07:30N 54°02' E 008°09'0 0.1
2016-Jun-28 04:33N 54°02' E 008°10'0 0.0
2016-Jun-28 03:30N 54°02' E 008°10'0 0.0
2016-Jun-28 02:33N 54°02' E 008°10'0 0.0
2016-Jun-28 01:33N 54°02' E 008°10'4 3.6
2016-Jun-28 00:31N 54°00' E 008°15'1414.0
2016-Jun-27 23:33N 53°57' E 008°38'1515.0
2016-Jun-27 22:34N 53°51' E 009°01'1413.8
2016-Jun-27 21:33N 53°47' E 009°23'9 9.3
2016-Jun-27 20:33N 53°39' E 009°31'0 0.0
2016-Jun-27 19:33N 53°39' E 009°31'0 0.0
2016-Jun-27 18:33N 53°39' E 009°31'0 0.0
2016-Jun-27 17:33N 53°39' E 009°31'0 0.0
2016-Jun-27 16:33N 53°39' E 009°31'0 0.0
2016-Jun-27 15:33N 53°39' E 009°31'0 0.0
2016-Jun-27 14:33N 53°39' E 009°31'0 0.0
2016-Jun-27 13:33N 53°39' E 009°31'0 0.0
2016-Jun-27 12:33N 53°39' E 009°31'0 0.0
2016-Jun-27 11:33N 53°39' E 009°31'0 0.0
2016-Jun-27 10:33N 53°39' E 009°31'0 0.0
2016-Jun-27 09:33N 53°39' E 009°31'0 0.0
2016-Jun-27 08:30N 53°39' E 009°31'0 0.0
2016-Jun-27 07:33N 53°39' E 009°31'0 0.0
2016-Jun-27 06:30N 53°39' E 009°31'0 0.0
2016-Jun-27 05:30N 53°39' E 009°31'0 0.0
2016-Jun-27 04:33N 53°39' E 009°31'0 0.0
2016-Jun-27 03:33N 53°39' E 009°31'0 0.0
2016-Jun-27 02:33N 53°39' E 009°31'0 0.0
2016-Jun-27 01:33N 53°39' E 009°31'0 0.0
2016-Jun-27 00:33N 53°39' E 009°31'0 0.0
2016-Jun-26 23:33N 53°39' E 009°31'0 0.0
2016-Jun-26 22:33N 53°39' E 009°31'0 0.0
2016-Jun-26 21:33N 53°39' E 009°31'0 0.0
2016-Jun-26 20:33N 53°39' E 009°31'0 0.0
2016-Jun-26 19:33N 53°39' E 009°31'0 0.0
2016-Jun-26 18:33N 53°39' E 009°31'0 0.1
2016-Jun-26 17:33N 53°39' E 009°31'1211.6
2016-Jun-26 16:33N 53°49' E 009°22'1413.9
2016-Jun-26 15:34N 53°51' E 008°58'1313.1
2016-Jun-26 14:33N 53°57' E 008°38'1515.2
2016-Jun-26 13:33N 53°60' E 008°13'1313.1
2016-Jun-26 12:33N 54°04' E 007°52'1312.9
2016-Jun-26 11:33N 54°09' E 007°32'1514.7
2016-Jun-26 10:33N 54°09' E 007°07'1615.5
2016-Jun-26 09:33N 54°08' E 006°40'2914.6
2016-Jun-26 07:34N 54°06' E 005°51'1414.1
2016-Jun-26 06:34N 54°04' E 005°27'1414.0
2016-Jun-26 05:33N 54°02' E 005°03'14814.2
2016-Jun-25 19:06N 54°28' E 000°54'814.8
2016-Jun-25 18:33N 54°29' E 000°40'1514.8
2016-Jun-25 17:33N 54°32' E 000°15'1514.7
2016-Jun-25 16:33N 54°34' W 000°10'1515.0
2016-Jun-25 15:33N 54°37' W 000°36'1313.1
2016-Jun-25 14:33N 54°39' W 000°58'5 0.2
2016-Jun-24 11:33N 54°41' W 001°07'5 4.8
2016-Jun-24 10:32N 54°45' W 001°10'0 0.0
2016-Jun-24 09:32N 54°45' W 001°10'0 0.1
2016-Jun-24 08:32N 54°45' W 001°10'0 0.0
2016-Jun-24 07:32N 54°45' W 001°10'0 0.0
2016-Jun-24 04:32N 54°45' W 001°10'0 0.1
2016-Jun-24 03:26N 54°45' W 001°10'0 0.0
2016-Jun-24 02:32N 54°45' W 001°10'0 0.0
2016-Jun-24 01:32N 54°45' W 001°10'0 0.0
2016-Jun-24 00:32N 54°45' W 001°10'0 0.0
2016-Jun-23 23:32N 54°45' W 001°10'0 0.0
2016-Jun-23 22:29N 54°45' W 001°10'0 0.0
2016-Jun-23 21:32N 54°45' W 001°10'0 0.0
2016-Jun-23 20:29N 54°45' W 001°10'0 0.0
2016-Jun-23 19:29N 54°45' W 001°10'0 0.0
2016-Jun-23 18:32N 54°45' W 001°10'0 0.0
2016-Jun-23 17:32N 54°45' W 001°10'0 0.0
2016-Jun-23 16:32N 54°45' W 001°10'0 0.0
2016-Jun-23 15:32N 54°45' W 001°10'0 0.0
2016-Jun-23 14:32N 54°45' W 001°10'0 0.0
2016-Jun-23 13:23N 54°45' W 001°10'0 0.0
2016-Jun-23 12:32N 54°45' W 001°10'0 0.0
2016-Jun-23 11:32N 54°45' W 001°10'0 0.0
2016-Jun-23 10:32N 54°45' W 001°10'0 0.0
2016-Jun-23 09:08N 54°45' W 001°10'0 0.1
2016-Jun-23 08:29N 54°45' W 001°10'0 0.1
2016-Jun-23 07:29N 54°45' W 001°10'0 0.0
2016-Jun-23 05:32N 54°45' W 001°10'0 0.0
2016-Jun-23 04:32N 54°45' W 001°10'0 0.0
2016-Jun-23 03:32N 54°45' W 001°10'0 0.1
2016-Jun-23 02:20N 54°45' W 001°10'0 0.1
2016-Jun-23 01:32N 54°45' W 001°10'0 0.0
2016-Jun-23 00:32N 54°45' W 001°10'0 0.0
2016-Jun-22 23:32N 54°45' W 001°10'0 0.0
2016-Jun-22 22:29N 54°45' W 001°10'0 0.0
2016-Jun-22 21:32N 54°45' W 001°10'0 0.1
2016-Jun-22 20:32N 54°45' W 001°10'0 0.1
2016-Jun-22 19:29N 54°45' W 001°10'0 0.1
2016-Jun-22 18:32N 54°45' W 001°10'0 0.0
2016-Jun-22 17:26N 54°45' W 001°10'0 0.0
2016-Jun-22 16:32N 54°45' W 001°10'0 0.0
2016-Jun-22 15:32N 54°45' W 001°10'0 0.0
2016-Jun-22 14:20N 54°45' W 001°10'0 0.1
2016-Jun-22 13:32N 54°45' W 001°10'0 0.0
2016-Jun-22 12:32N 54°45' W 001°10'0 0.0
2016-Jun-22 11:32N 54°45' W 001°10'0 0.0
2016-Jun-22 10:17N 54°45' W 001°10'0 0.0
2016-Jun-22 09:32N 54°45' W 001°10'0 0.0
2016-Jun-22 08:32N 54°45' W 001°10'0 0.0
2016-Jun-22 07:32N 54°45' W 001°10'0 0.1
2016-Jun-22 06:32N 54°45' W 001°10'0 0.0
2016-Jun-22 05:32N 54°45' W 001°10'0 0.0
2016-Jun-22 04:32N 54°45' W 001°10'0 0.0
2016-Jun-22 03:32N 54°45' W 001°10'0 0.1
2016-Jun-22 02:32N 54°45' W 001°10'0 0.0
2016-Jun-22 01:32N 54°45' W 001°10'0 0.0
2016-Jun-22 00:32N 54°45' W 001°10'0 0.0
2016-Jun-21 23:32N 54°45' W 001°10'0 0.0
2016-Jun-21 22:32N 54°45' W 001°10'0 0.0
2016-Jun-21 21:32N 54°45' W 001°10'0 0.0
2016-Jun-21 20:32N 54°45' W 001°10'0 0.1
2016-Jun-21 19:32N 54°45' W 001°10'0 0.1
2016-Jun-21 18:32N 54°45' W 001°10'0 0.0
2016-Jun-21 17:29N 54°45' W 001°10'0 0.0
2016-Jun-21 16:26N 54°45' W 001°10'0 0.0
2016-Jun-21 15:29N 54°45' W 001°10'0 0.0
2016-Jun-21 14:29N 54°45' W 001°10'0 0.0
2016-Jun-21 13:32N 54°45' W 001°10'0 0.0
2016-Jun-21 12:32N 54°45' W 001°10'0 0.1
2016-Jun-21 11:32N 54°45' W 001°10'0 0.0
2016-Jun-21 10:32N 54°45' W 001°10'0 0.0
2016-Jun-21 09:32N 54°45' W 001°10'0 0.0
2016-Jun-21 08:32N 54°45' W 001°10'0 0.0
2016-Jun-21 07:32N 54°45' W 001°10'0 0.0
2016-Jun-21 06:32N 54°45' W 001°10'0 0.0
2016-Jun-21 04:26N 54°45' W 001°10'0 0.0
2016-Jun-21 03:32N 54°45' W 001°10'0 0.0
2016-Jun-21 02:26N 54°45' W 001°10'0 0.0
2016-Jun-21 01:26N 54°45' W 001°10'0 0.1
2016-Jun-21 00:26N 54°45' W 001°10'0 0.0
2016-Jun-20 23:29N 54°45' W 001°10'0 0.0
2016-Jun-20 22:32N 54°45' W 001°10'0 0.0
2016-Jun-20 21:32N 54°45' W 001°10'0 0.0
2016-Jun-20 20:29N 54°45' W 001°10'0 0.1
2016-Jun-20 19:32N 54°45' W 001°10'0 0.0
2016-Jun-20 18:20N 54°45' W 001°10'0 0.0
2016-Jun-20 17:32N 54°45' W 001°10'0 0.0
2016-Jun-20 16:32N 54°45' W 001°10'0 0.0
2016-Jun-20 15:23N 54°45' W 001°10'0 0.0
2016-Jun-20 14:23N 54°45' W 001°10'0 0.0
2016-Jun-20 13:26N 54°45' W 001°10'0 0.1
2016-Jun-20 12:32N 54°45' W 001°10'0 0.1
2016-Jun-20 11:32N 54°45' W 001°10'0 0.0
2016-Jun-20 10:32N 54°45' W 001°10'0 0.0
2016-Jun-20 09:32N 54°45' W 001°10'0 0.0
2016-Jun-20 08:32N 54°45' W 001°10'0 0.0
2016-Jun-20 07:29N 54°45' W 001°10'0 0.1
2016-Jun-20 06:32N 54°45' W 001°10'0 0.0
2016-Jun-20 05:32N 54°45' W 001°10'0 0.1
2016-Jun-20 04:32N 54°45' W 001°10'0 0.0
2016-Jun-20 03:32N 54°45' W 001°10'0 0.0
2016-Jun-20 02:32N 54°45' W 001°10'0 0.1
2016-Jun-20 01:29N 54°45' W 001°10'0 0.0
2016-Jun-20 00:32N 54°45' W 001°10'0 0.0
2016-Jun-19 23:32N 54°45' W 001°10'0 0.0
2016-Jun-19 22:29N 54°45' W 001°10'0 0.0
2016-Jun-19 21:32N 54°45' W 001°10'0 0.0
2016-Jun-19 20:32N 54°45' W 001°10'0 0.0
2016-Jun-19 19:32N 54°45' W 001°10'0 0.0
2016-Jun-19 18:32N 54°45' W 001°10'0 0.0
2016-Jun-19 17:32N 54°45' W 001°10'0 0.0
2016-Jun-19 16:32N 54°45' W 001°10'0 0.1
2016-Jun-19 15:32N 54°45' W 001°10'0 0.0
2016-Jun-19 14:32N 54°45' W 001°10'0 0.0
2016-Jun-19 13:29N 54°45' W 001°10'0 0.1
2016-Jun-19 12:29N 54°45' W 001°10'0 0.0
2016-Jun-19 11:23N 54°45' W 001°10'0 0.0
2016-Jun-19 10:32N 54°45' W 001°10'0 0.0
2016-Jun-19 09:32N 54°45' W 001°10'0 0.0
2016-Jun-19 08:32N 54°45' W 001°10'0 0.0
2016-Jun-19 07:32N 54°45' W 001°10'0 0.0
2016-Jun-19 06:29N 54°45' W 001°10'0 0.1
2016-Jun-19 05:29N 54°45' W 001°10'0 0.0
2016-Jun-19 04:29N 54°45' W 001°10'0 0.0
2016-Jun-19 03:32N 54°45' W 001°10'0 0.0
2016-Jun-19 02:32N 54°45' W 001°10'0 0.0
2016-Jun-19 01:33N 54°45' W 001°10'6 6.0
2016-Jun-19 00:33N 54°42' W 001°02'1414.2
2016-Jun-18 23:33N 54°35' W 000°40'1414.3
2016-Jun-18 22:34N 54°27' W 000°20'1515.1
2016-Jun-18 21:33N 54°16' W 000°01'1514.8
2016-Jun-18 20:33N 54°06' E 000°16'2114.5
2016-Jun-18 19:06N 53°48' E 000°37'813.7
2016-Jun-18 18:29N 53°42' E 000°46'3013.0
2016-Jun-18 16:12N 53°16' E 001°12'913.2
2016-Jun-18 15:30N 53°09' E 001°20'1314.3
2016-Jun-18 14:34N 52°58' E 001°34'  
Track history (hours):
 
Tides and Currents Weather Stations Pressure Air Temp Water Temp Dewpoint Dewpoint Depression Visibility Wind Speed Wind Dir Waves Ship Positions

Betagas

Last reported at 2016-Jun-28 14:33 UTC. Time now 2016-Jun-28 15:12 UTC.
Position N 54°02' E 008°10'.

Length 114.6 m; beam 15.7 m; draft 7.4 m.

Type: Tanker. MMSI: 304050636.

Date/timePositionNaut miles runAvg speedWind from/ knotsBaromVisibWave heightAir tempDewpointWater temp
2016-Jun-28 14:33N 54°02' E 008°10'0 0.0
2016-Jun-28 13:33N 54°02' E 008°10'0 0.0
2016-Jun-28 12:33N 54°02' E 008°10'0 0.1
2016-Jun-28 11:33N 54°02' E 008°09'0 0.0
2016-Jun-28 10:27N 54°02' E 008°09'0 0.1
2016-Jun-28 09:30N 54°02' E 008°09'0 0.0
2016-Jun-28 08:33N 54°02' E 008°09'0 0.1
2016-Jun-28 07:30N 54°02' E 008°09'0 0.1
2016-Jun-28 04:33N 54°02' E 008°10'0 0.0
2016-Jun-28 03:30N 54°02' E 008°10'0 0.0
2016-Jun-28 02:33N 54°02' E 008°10'0 0.0
2016-Jun-28 01:33N 54°02' E 008°10'4 3.6
2016-Jun-28 00:31N 54°00' E 008°15'1414.0
2016-Jun-27 23:33N 53°57' E 008°38'1515.0
2016-Jun-27 22:34N 53°51' E 009°01'1413.8
2016-Jun-27 21:33N 53°47' E 009°23'9 9.3
2016-Jun-27 20:33N 53°39' E 009°31'0 0.0
2016-Jun-27 19:33N 53°39' E 009°31'0 0.0
2016-Jun-27 18:33N 53°39' E 009°31'0 0.0
2016-Jun-27 17:33N 53°39' E 009°31'0 0.0
2016-Jun-27 16:33N 53°39' E 009°31'0 0.0
2016-Jun-27 15:33N 53°39' E 009°31'0 0.0
2016-Jun-27 14:33N 53°39' E 009°31'0 0.0
2016-Jun-27 13:33N 53°39' E 009°31'0 0.0
2016-Jun-27 12:33N 53°39' E 009°31'0 0.0
2016-Jun-27 11:33N 53°39' E 009°31'0 0.0
2016-Jun-27 10:33N 53°39' E 009°31'0 0.0
2016-Jun-27 09:33N 53°39' E 009°31'0 0.0
2016-Jun-27 08:30N 53°39' E 009°31'0 0.0
2016-Jun-27 07:33N 53°39' E 009°31'0 0.0
2016-Jun-27 06:30N 53°39' E 009°31'0 0.0
2016-Jun-27 05:30N 53°39' E 009°31'0 0.0
2016-Jun-27 04:33N 53°39' E 009°31'0 0.0
2016-Jun-27 03:33N 53°39' E 009°31'0 0.0
2016-Jun-27 02:33N 53°39' E 009°31'0 0.0
2016-Jun-27 01:33N 53°39' E 009°31'0 0.0
2016-Jun-27 00:33N 53°39' E 009°31'0 0.0
2016-Jun-26 23:33N 53°39' E 009°31'0 0.0
2016-Jun-26 22:33N 53°39' E 009°31'0 0.0
2016-Jun-26 21:33N 53°39' E 009°31'0 0.0
2016-Jun-26 20:33N 53°39' E 009°31'0 0.0
2016-Jun-26 19:33N 53°39' E 009°31'0 0.0
2016-Jun-26 18:33N 53°39' E 009°31'0 0.1
2016-Jun-26 17:33N 53°39' E 009°31'1211.6
2016-Jun-26 16:33N 53°49' E 009°22'1413.9
2016-Jun-26 15:34N 53°51' E 008°58'1313.1
2016-Jun-26 14:33N 53°57' E 008°38'1515.2
2016-Jun-26 13:33N 53°60' E 008°13'1313.1
2016-Jun-26 12:33N 54°04' E 007°52'1312.9
2016-Jun-26 11:33N 54°09' E 007°32'1514.7
2016-Jun-26 10:33N 54°09' E 007°07'1615.5
2016-Jun-26 09:33N 54°08' E 006°40'2914.6
2016-Jun-26 07:34N 54°06' E 005°51'1414.1
2016-Jun-26 06:34N 54°04' E 005°27'1414.0
2016-Jun-26 05:33N 54°02' E 005°03'14814.2
2016-Jun-25 19:06N 54°28' E 000°54'814.8
2016-Jun-25 18:33N 54°29' E 000°40'1514.8
2016-Jun-25 17:33N 54°32' E 000°15'1514.7
2016-Jun-25 16:33N 54°34' W 000°10'1515.0
2016-Jun-25 15:33N 54°37' W 000°36'1313.1
2016-Jun-25 14:33N 54°39' W 000°58'5 0.2
2016-Jun-24 11:33N 54°41' W 001°07'5 4.8
2016-Jun-24 10:32N 54°45' W 001°10'0 0.0
2016-Jun-24 09:32N 54°45' W 001°10'0 0.1
2016-Jun-24 08:32N 54°45' W 001°10'0 0.0
2016-Jun-24 07:32N 54°45' W 001°10'0 0.0
2016-Jun-24 04:32N 54°45' W 001°10'0 0.1
2016-Jun-24 03:26N 54°45' W 001°10'0 0.0
2016-Jun-24 02:32N 54°45' W 001°10'0 0.0
2016-Jun-24 01:32N 54°45' W 001°10'0 0.0
2016-Jun-24 00:32N 54°45' W 001°10'0 0.0
2016-Jun-23 23:32N 54°45' W 001°10'0 0.0
2016-Jun-23 22:29N 54°45' W 001°10'0 0.0
2016-Jun-23 21:32N 54°45' W 001°10'0 0.0
2016-Jun-23 20:29N 54°45' W 001°10'0 0.0
2016-Jun-23 19:29N 54°45' W 001°10'0 0.0
2016-Jun-23 18:32N 54°45' W 001°10'0 0.0
2016-Jun-23 17:32N 54°45' W 001°10'0 0.0
2016-Jun-23 16:32N 54°45' W 001°10'0 0.0
2016-Jun-23 15:32N 54°45' W 001°10'0 0.0
2016-Jun-23 14:32N 54°45' W 001°10'0 0.0
2016-Jun-23 13:23N 54°45' W 001°10'0 0.0
2016-Jun-23 12:32N 54°45' W 001°10'0 0.0
2016-Jun-23 11:32N 54°45' W 001°10'0 0.0
2016-Jun-23 10:32N 54°45' W 001°10'0 0.0
2016-Jun-23 09:08N 54°45' W 001°10'0 0.1
2016-Jun-23 08:29N 54°45' W 001°10'0 0.1
2016-Jun-23 07:29N 54°45' W 001°10'0 0.0
2016-Jun-23 05:32N 54°45' W 001°10'0 0.0
2016-Jun-23 04:32N 54°45' W 001°10'0 0.0
2016-Jun-23 03:32N 54°45' W 001°10'0 0.1
2016-Jun-23 02:20N 54°45' W 001°10'0 0.1
2016-Jun-23 01:32N 54°45' W 001°10'0 0.0
2016-Jun-23 00:32N 54°45' W 001°10'0 0.0
2016-Jun-22 23:32N 54°45' W 001°10'0 0.0
2016-Jun-22 22:29N 54°45' W 001°10'0 0.0
2016-Jun-22 21:32N 54°45' W 001°10'0 0.1
2016-Jun-22 20:32N 54°45' W 001°10'0 0.1
2016-Jun-22 19:29N 54°45' W 001°10'0 0.1
2016-Jun-22 18:32N 54°45' W 001°10'0 0.0
2016-Jun-22 17:26N 54°45' W 001°10'0 0.0
2016-Jun-22 16:32N 54°45' W 001°10'0 0.0
2016-Jun-22 15:32N 54°45' W 001°10'0 0.0
2016-Jun-22 14:20N 54°45' W 001°10'0 0.1
2016-Jun-22 13:32N 54°45' W 001°10'0 0.0
2016-Jun-22 12:32N 54°45' W 001°10'0 0.0
2016-Jun-22 11:32N 54°45' W 001°10'0 0.0
2016-Jun-22 10:17N 54°45' W 001°10'0 0.0
2016-Jun-22 09:32N 54°45' W 001°10'0 0.0
2016-Jun-22 08:32N 54°45' W 001°10'0 0.0
2016-Jun-22 07:32N 54°45' W 001°10'0 0.1
2016-Jun-22 06:32N 54°45' W 001°10'0 0.0
2016-Jun-22 05:32N 54°45' W 001°10'0 0.0
2016-Jun-22 04:32N 54°45' W 001°10'0 0.0
2016-Jun-22 03:32N 54°45' W 001°10'0 0.1
2016-Jun-22 02:32N 54°45' W 001°10'0 0.0
2016-Jun-22 01:32N 54°45' W 001°10'0 0.0
2016-Jun-22 00:32N 54°45' W 001°10'0 0.0
2016-Jun-21 23:32N 54°45' W 001°10'0 0.0
2016-Jun-21 22:32N 54°45' W 001°10'0 0.0
2016-Jun-21 21:32N 54°45' W 001°10'0 0.0
2016-Jun-21 20:32N 54°45' W 001°10'0 0.1
2016-Jun-21 19:32N 54°45' W 001°10'0 0.1
2016-Jun-21 18:32N 54°45' W 001°10'0 0.0
2016-Jun-21 17:29N 54°45' W 001°10'0 0.0
2016-Jun-21 16:26N 54°45' W 001°10'0 0.0
2016-Jun-21 15:29N 54°45' W 001°10'0 0.0
2016-Jun-21 14:29N 54°45' W 001°10'0 0.0
2016-Jun-21 13:32N 54°45' W 001°10'0 0.0
2016-Jun-21 12:32N 54°45' W 001°10'0 0.1
2016-Jun-21 11:32N 54°45' W 001°10'0 0.0
2016-Jun-21 10:32N 54°45' W 001°10'0 0.0
2016-Jun-21 09:32N 54°45' W 001°10'0 0.0
2016-Jun-21 08:32N 54°45' W 001°10'0 0.0
2016-Jun-21 07:32N 54°45' W 001°10'0 0.0
2016-Jun-21 06:32N 54°45' W 001°10'0 0.0
2016-Jun-21 04:26N 54°45' W 001°10'0 0.0
2016-Jun-21 03:32N 54°45' W 001°10'0 0.0
2016-Jun-21 02:26N 54°45' W 001°10'0 0.0
2016-Jun-21 01:26N 54°45' W 001°10'0 0.1
2016-Jun-21 00:26N 54°45' W 001°10'0 0.0
2016-Jun-20 23:29N 54°45' W 001°10'0 0.0
2016-Jun-20 22:32N 54°45' W 001°10'0 0.0
2016-Jun-20 21:32N 54°45' W 001°10'0 0.0
2016-Jun-20 20:29N 54°45' W 001°10'0 0.1
2016-Jun-20 19:32N 54°45' W 001°10'0 0.0
2016-Jun-20 18:20N 54°45' W 001°10'0 0.0
2016-Jun-20 17:32N 54°45' W 001°10'0 0.0
2016-Jun-20 16:32N 54°45' W 001°10'0 0.0
2016-Jun-20 15:23N 54°45' W 001°10'0 0.0
2016-Jun-20 14:23N 54°45' W 001°10'0 0.0
2016-Jun-20 13:26N 54°45' W 001°10'0 0.1
2016-Jun-20 12:32N 54°45' W 001°10'0 0.1
2016-Jun-20 11:32N 54°45' W 001°10'0 0.0
2016-Jun-20 10:32N 54°45' W 001°10'0 0.0
2016-Jun-20 09:32N 54°45' W 001°10'0 0.0
2016-Jun-20 08:32N 54°45' W 001°10'0 0.0
2016-Jun-20 07:29N 54°45' W 001°10'0 0.1
2016-Jun-20 06:32N 54°45' W 001°10'0 0.0
2016-Jun-20 05:32N 54°45' W 001°10'0 0.1
2016-Jun-20 04:32N 54°45' W 001°10'0 0.0
2016-Jun-20 03:32N 54°45' W 001°10'0 0.0
2016-Jun-20 02:32N 54°45' W 001°10'0 0.1
2016-Jun-20 01:29N 54°45' W 001°10'0 0.0
2016-Jun-20 00:32N 54°45' W 001°10'0 0.0
2016-Jun-19 23:32N 54°45' W 001°10'0 0.0
2016-Jun-19 22:29N 54°45' W 001°10'0 0.0
2016-Jun-19 21:32N 54°45' W 001°10'0 0.0
2016-Jun-19 20:32N 54°45' W 001°10'0 0.0
2016-Jun-19 19:32N 54°45' W 001°10'0 0.0
2016-Jun-19 18:32N 54°45' W 001°10'0 0.0
2016-Jun-19 17:32N 54°45' W 001°10'0 0.0
2016-Jun-19 16:32N 54°45' W 001°10'0 0.1
2016-Jun-19 15:32N 54°45' W 001°10'0 0.0
2016-Jun-19 14:32N 54°45' W 001°10'0 0.0
2016-Jun-19 13:29N 54°45' W 001°10'0 0.1
2016-Jun-19 12:29N 54°45' W 001°10'0 0.0
2016-Jun-19 11:23N 54°45' W 001°10'0 0.0
2016-Jun-19 10:32N 54°45' W 001°10'0 0.0
2016-Jun-19 09:32N 54°45' W 001°10'0 0.0
2016-Jun-19 08:32N 54°45' W 001°10'0 0.0
2016-Jun-19 07:32N 54°45' W 001°10'0 0.0
2016-Jun-19 06:29N 54°45' W 001°10'0 0.1
2016-Jun-19 05:29N 54°45' W 001°10'0 0.0
2016-Jun-19 04:29N 54°45' W 001°10'0 0.0
2016-Jun-19 03:32N 54°45' W 001°10'0 0.0
2016-Jun-19 02:32N 54°45' W 001°10'0 0.0
2016-Jun-19 01:33N 54°45' W 001°10'6 6.0
2016-Jun-19 00:33N 54°42' W 001°02'1414.2
2016-Jun-18 23:33N 54°35' W 000°40'1414.3
2016-Jun-18 22:34N 54°27' W 000°20'1515.1
2016-Jun-18 21:33N 54°16' W 000°01'1514.8
2016-Jun-18 20:33N 54°06' E 000°16'2114.5
2016-Jun-18 19:06N 53°48' E 000°37'813.7
2016-Jun-18 18:29N 53°42' E 000°46'3013.0
2016-Jun-18 16:12N 53°16' E 001°12'913.2
2016-Jun-18 15:30N 53°09' E 001°20'1314.3
2016-Jun-18 14:34N 52°58' E 001°34'  

Dump ship's entire track history